createdAt,value
2018-05-07T00:00:30.067Z,2.30
2018-05-07T00:02:57.525Z,4.70
2018-05-07T00:05:24.962Z,3.30
2018-05-07T00:07:52.438Z,2.67
2018-05-07T00:10:19.906Z,2.90
2018-05-07T00:12:47.360Z,2.90
2018-05-07T00:15:14.843Z,2.40
2018-05-07T00:17:42.407Z,2.30
2018-05-07T00:20:09.830Z,2.67
2018-05-07T00:22:37.423Z,2.73
2018-05-07T00:25:05.642Z,2.60
2018-05-07T00:27:33.128Z,2.80
2018-05-07T00:30:00.694Z,2.40
2018-05-07T00:32:28.160Z,2.80
2018-05-07T00:34:56.426Z,3.20
2018-05-07T00:37:23.885Z,2.60
2018-05-07T00:39:51.330Z,2.60
2018-05-07T00:42:18.791Z,2.77
2018-05-07T00:44:46.266Z,3.00
2018-05-07T00:47:14.500Z,2.30
2018-05-07T00:49:42.007Z,2.40
2018-05-07T00:52:09.506Z,2.80
2018-05-07T00:54:48.776Z,2.80
2018-05-07T00:57:16.997Z,2.77
2018-05-07T00:59:44.459Z,2.87
2018-05-07T01:02:11.949Z,2.73
2018-05-07T01:04:39.438Z,2.83
2018-05-07T01:07:06.946Z,2.63
2018-05-07T01:09:34.392Z,3.00
2018-05-07T01:12:01.841Z,3.30
2018-05-07T01:14:29.301Z,2.67
2018-05-07T01:16:56.868Z,2.70
2018-05-07T01:19:24.343Z,2.73
2018-05-07T01:21:51.897Z,3.13
2018-05-07T01:24:19.430Z,2.93
2018-05-07T01:26:46.903Z,2.87
2018-05-07T01:29:14.459Z,3.27
2018-05-07T01:31:42.005Z,3.20
2018-05-07T01:34:09.558Z,3.00
2018-05-07T01:36:37.043Z,3.00
2018-05-07T01:39:04.522Z,2.43
2018-05-07T01:41:32.748Z,2.70
2018-05-07T01:44:00.308Z,3.00
2018-05-07T01:46:27.746Z,3.03
2018-05-07T01:48:55.199Z,2.70
2018-05-07T01:51:22.703Z,3.00
2018-05-07T01:53:50.160Z,3.10
2018-05-07T01:56:18.404Z,2.73
2018-05-07T01:58:45.878Z,3.50
2018-05-07T02:01:13.439Z,3.23
2018-05-07T02:03:40.913Z,3.13
2018-05-07T02:06:09.131Z,3.23
2018-05-07T02:08:36.607Z,3.27
2018-05-07T02:11:04.059Z,3.07
2018-05-07T02:13:31.513Z,3.17
2018-05-07T02:15:59.067Z,2.90
2018-05-07T02:18:26.552Z,2.77
2018-05-07T02:20:54.011Z,4.10
2018-05-07T02:23:22.238Z,2.90
2018-05-07T02:25:49.817Z,2.80
2018-05-07T02:28:17.273Z,2.80
2018-05-07T02:30:44.798Z,3.40
2018-05-07T02:33:12.290Z,3.10
2018-05-07T02:35:39.816Z,3.13
2018-05-07T02:38:07.347Z,3.20
2018-05-07T02:40:35.616Z,3.27
2018-05-07T02:43:03.895Z,3.30
2018-05-07T02:45:32.172Z,3.30
2018-05-07T02:47:59.720Z,3.03
2018-05-07T02:50:27.987Z,3.10
2018-05-07T02:52:56.274Z,3.13
2018-05-07T02:55:24.532Z,3.63
2018-05-07T02:57:52.827Z,3.70
2018-05-07T03:00:21.089Z,3.47
2018-05-07T03:02:49.499Z,3.30
2018-05-07T03:05:16.998Z,3.97
2018-05-07T03:07:44.489Z,3.70
2018-05-07T03:10:12.742Z,3.93
2018-05-07T03:12:40.231Z,4.10
2018-05-07T03:15:07.740Z,3.53
2018-05-07T03:17:35.265Z,3.60
2018-05-07T03:20:02.791Z,3.80
2018-05-07T03:22:31.087Z,4.03
2018-05-07T03:24:58.578Z,4.00
2018-05-07T03:27:26.070Z,3.50
2018-05-07T03:29:54.348Z,3.53
2018-05-07T03:32:22.613Z,3.50
2018-05-07T03:34:50.863Z,4.07
2018-05-07T03:37:18.467Z,4.00
2018-05-07T03:39:45.976Z,4.47
2018-05-07T03:42:13.588Z,3.97
2018-05-07T03:44:41.124Z,3.90
2018-05-07T03:47:09.402Z,4.53
2018-05-07T03:49:37.684Z,3.90
2018-05-07T03:52:05.238Z,3.87
2018-05-07T03:54:32.802Z,4.40
2018-05-07T03:57:00.372Z,4.43
2018-05-07T03:59:27.929Z,3.87
2018-05-07T04:01:55.479Z,3.97
2018-05-07T04:04:22.986Z,4.47
2018-05-07T04:06:50.486Z,4.57
2018-05-07T04:09:18.038Z,4.67
2018-05-07T04:11:46.293Z,4.10
2018-05-07T04:14:13.787Z,6.10
2018-05-07T04:16:53.116Z,4.47
2018-05-07T04:19:32.518Z,4.93
2018-05-07T04:22:11.851Z,5.90
2018-05-07T04:24:40.147Z,4.63
2018-05-07T04:27:08.422Z,4.43
2018-05-07T04:29:35.916Z,4.87
2018-05-07T04:32:03.402Z,4.03
2018-05-07T04:34:31.820Z,4.50
2018-05-07T04:36:59.301Z,4.17
2018-05-07T04:39:26.821Z,4.33
2018-05-07T04:41:55.078Z,4.30
2018-05-07T04:44:22.687Z,4.60
2018-05-07T04:46:50.201Z,4.23
2018-05-07T04:49:18.463Z,4.60
2018-05-07T04:51:45.973Z,4.27
2018-05-07T04:54:13.470Z,3.93
2018-05-07T04:56:40.954Z,4.03
2018-05-07T04:59:09.330Z,4.60
2018-05-07T05:01:37.578Z,4.93
2018-05-07T05:04:05.100Z,4.03
2018-05-07T05:06:32.593Z,4.40
2018-05-07T05:09:00.100Z,4.00
2018-05-07T05:11:27.624Z,4.50
2018-05-07T05:13:55.887Z,4.07
2018-05-07T05:16:23.389Z,4.60
2018-05-07T05:18:50.933Z,5.27
2018-05-07T05:21:18.450Z,3.80
2018-05-07T05:23:46.774Z,4.10
2018-05-07T05:26:14.262Z,3.80
2018-05-07T05:28:41.876Z,4.43
2018-05-07T05:31:09.364Z,4.00
2018-05-07T05:33:37.734Z,5.33
2018-05-07T05:36:05.221Z,5.60
2018-05-07T05:38:33.526Z,4.73
2018-05-07T05:41:01.781Z,4.90
2018-05-07T05:43:29.455Z,4.07
2018-05-07T05:45:56.866Z,5.13
2018-05-07T05:48:24.352Z,4.93
2018-05-07T05:50:51.849Z,3.90
2018-05-07T05:53:19.349Z,4.80
2018-05-07T05:55:46.846Z,3.67
2018-05-07T05:58:15.108Z,4.60
2018-05-07T06:00:43.405Z,3.80
2018-05-07T06:03:11.095Z,4.13
2018-05-07T06:05:38.758Z,4.27
2018-05-07T06:08:06.266Z,3.90
2018-05-07T06:10:34.574Z,4.47
2018-05-07T06:13:02.093Z,4.80
2018-05-07T06:15:30.487Z,4.07
2018-05-07T06:17:57.981Z,3.20
2018-05-07T06:20:25.521Z,3.70
2018-05-07T06:22:53.116Z,3.50
2018-05-07T06:25:20.606Z,3.43
2018-05-07T06:27:48.870Z,3.53
2018-05-07T06:30:17.117Z,3.77
2018-05-07T06:32:44.626Z,4.00
2018-05-07T06:35:12.140Z,3.70
2018-05-07T06:37:39.755Z,3.60
2018-05-07T06:40:07.266Z,3.93
2018-05-07T06:42:35.552Z,3.33
2018-05-07T06:45:03.059Z,2.97
2018-05-07T06:47:30.673Z,4.10
2018-05-07T06:49:58.914Z,2.97
2018-05-07T06:52:26.506Z,3.07
2018-05-07T06:54:54.767Z,3.23
2018-05-07T06:57:23.082Z,3.70
2018-05-07T06:59:50.614Z,3.50
2018-05-07T07:02:18.906Z,3.73
2018-05-07T07:04:46.420Z,3.30
2018-05-07T07:07:14.023Z,2.60
2018-05-07T07:09:41.561Z,2.77
2018-05-07T07:12:09.823Z,3.10
2018-05-07T07:14:38.154Z,2.73
2018-05-07T07:17:05.610Z,3.07
2018-05-07T07:19:33.188Z,2.80
2018-05-07T07:22:00.689Z,2.90
2018-05-07T07:24:28.181Z,2.80
2018-05-07T07:26:55.692Z,3.27
2018-05-07T07:29:23.971Z,2.67
2018-05-07T07:31:52.342Z,3.00
2018-05-07T07:34:20.595Z,3.03
2018-05-07T07:36:48.078Z,3.93
2018-05-07T07:39:16.355Z,2.73
2018-05-07T07:41:43.905Z,3.07
2018-05-07T07:44:12.184Z,2.67
2018-05-07T07:46:40.441Z,2.97
2018-05-07T07:49:08.724Z,3.47
2018-05-07T07:51:36.989Z,2.93
2018-05-07T07:54:05.381Z,2.60
2018-05-07T07:56:33.640Z,2.93
2018-05-07T07:59:01.951Z,3.37
2018-05-07T08:01:29.498Z,2.80
2018-05-07T08:03:57.004Z,2.53
2018-05-07T08:06:24.630Z,2.90
2018-05-07T08:08:52.212Z,3.03
2018-05-07T08:11:19.722Z,2.83
2018-05-07T08:13:47.209Z,2.63
2018-05-07T08:16:14.744Z,2.40
2018-05-07T08:18:42.254Z,3.00
2018-05-07T08:21:09.773Z,2.90
2018-05-07T08:23:37.262Z,3.10
2018-05-07T08:26:04.863Z,3.23
2018-05-07T08:28:32.368Z,2.30
2018-05-07T08:30:59.980Z,2.90
2018-05-07T08:33:27.472Z,2.60
2018-05-07T08:35:54.970Z,2.57
2018-05-07T08:38:23.254Z,3.30
2018-05-07T08:40:51.504Z,2.83
2018-05-07T08:43:18.983Z,2.53
2018-05-07T08:45:47.269Z,3.00
2018-05-07T08:48:15.528Z,3.03
2018-05-07T08:50:43.783Z,3.77
2018-05-07T08:53:11.476Z,2.70
2018-05-07T08:55:39.635Z,3.33
2018-05-07T08:58:07.937Z,2.43
2018-05-07T09:00:35.460Z,2.63
2018-05-07T09:03:03.868Z,2.70
2018-05-07T09:05:31.405Z,3.30
2018-05-07T09:07:59.813Z,2.70
2018-05-07T09:10:27.294Z,3.10
2018-05-07T09:12:54.770Z,2.70
2018-05-07T09:15:22.296Z,2.67
2018-05-07T09:17:49.784Z,3.70
2018-05-07T09:20:17.270Z,3.17
2018-05-07T09:22:45.561Z,3.20
2018-05-07T09:25:13.101Z,2.90
2018-05-07T09:27:41.386Z,2.90
2018-05-07T09:30:08.876Z,2.60
2018-05-07T09:32:36.420Z,2.67
2018-05-07T09:35:03.938Z,2.70
2018-05-07T09:37:32.218Z,2.47
2018-05-07T09:40:00.489Z,2.23
2018-05-07T09:42:28.848Z,2.80
2018-05-07T09:44:56.342Z,2.80
2018-05-07T09:47:23.889Z,2.93
2018-05-07T09:49:51.420Z,2.40
2018-05-07T09:52:19.687Z,2.60
2018-05-07T09:54:47.165Z,3.13
2018-05-07T09:57:15.441Z,2.27
2018-05-07T09:59:43.687Z,2.50
2018-05-07T10:02:11.188Z,2.63
2018-05-07T10:04:38.706Z,3.30
2018-05-07T10:07:06.199Z,3.03
2018-05-07T10:09:33.758Z,2.60
2018-05-07T10:12:01.284Z,2.77
2018-05-07T10:14:29.551Z,2.47
2018-05-07T10:16:57.051Z,2.77
2018-05-07T10:19:24.562Z,2.57
2018-05-07T10:21:52.881Z,3.17
2018-05-07T10:24:20.524Z,2.50
2018-05-07T10:26:48.092Z,3.10
2018-05-07T10:29:15.611Z,2.77
2018-05-07T10:31:43.316Z,2.57
2018-05-07T10:34:10.809Z,3.00
2018-05-07T10:36:38.318Z,2.60
2018-05-07T10:39:06.746Z,2.73
2018-05-07T10:41:34.338Z,2.63
2018-05-07T10:44:02.596Z,2.70
2018-05-07T10:46:30.108Z,2.73
2018-05-07T10:48:57.587Z,2.70
2018-05-07T10:51:25.086Z,2.57
2018-05-07T10:53:53.369Z,2.77
2018-05-07T10:56:20.874Z,2.90
2018-05-07T10:58:48.473Z,3.13
2018-05-07T11:01:16.719Z,3.13
2018-05-07T11:03:44.310Z,2.77
2018-05-07T11:06:11.862Z,3.13
2018-05-07T11:08:40.145Z,2.77
2018-05-07T11:11:07.679Z,2.33
2018-05-07T11:13:35.962Z,3.07
2018-05-07T11:16:04.225Z,2.83
2018-05-07T11:18:31.736Z,2.97
2018-05-07T11:20:59.244Z,2.90
2018-05-07T11:23:27.521Z,2.70
2018-05-07T11:25:55.806Z,2.40
2018-05-07T11:28:23.304Z,2.77
2018-05-07T11:30:50.801Z,2.53
2018-05-07T11:33:19.071Z,2.90
2018-05-07T11:35:46.558Z,2.30
2018-05-07T11:38:14.073Z,2.40
2018-05-07T11:40:41.583Z,2.77
2018-05-07T11:43:09.173Z,2.23
2018-05-07T11:45:36.796Z,2.50
2018-05-07T11:48:04.295Z,2.60
2018-05-07T11:50:31.803Z,2.33
2018-05-07T11:52:59.340Z,2.83
2018-05-07T11:55:27.590Z,2.10
2018-05-07T11:57:55.108Z,2.40
2018-05-07T12:00:22.594Z,2.77
2018-05-07T12:02:50.231Z,2.50
2018-05-07T12:05:17.772Z,2.40
2018-05-07T12:07:45.304Z,2.33
2018-05-07T12:10:13.593Z,2.10
2018-05-07T12:12:41.152Z,2.13
2018-05-07T12:15:08.676Z,2.63
2018-05-07T12:17:36.272Z,2.53
2018-05-07T12:20:03.820Z,2.50
2018-05-07T12:22:31.323Z,2.30
2018-05-07T12:24:58.832Z,2.50
2018-05-07T12:27:26.343Z,2.23
2018-05-07T12:29:53.848Z,2.60
2018-05-07T12:32:21.412Z,2.70
2018-05-07T12:34:48.948Z,2.77
2018-05-07T12:37:17.197Z,2.40
2018-05-07T12:39:44.711Z,2.30
2018-05-07T12:42:12.245Z,2.80
2018-05-07T12:44:40.544Z,2.63
2018-05-07T12:47:08.883Z,2.50
2018-05-07T12:49:36.468Z,3.13
2018-05-07T12:52:04.022Z,2.40
2018-05-07T12:54:31.529Z,3.20
2018-05-07T12:56:59.028Z,2.40
2018-05-07T12:59:26.567Z,2.37
2018-05-07T13:01:54.860Z,2.53
2018-05-07T13:04:23.153Z,2.83
2018-05-07T13:06:50.685Z,2.40
2018-05-07T13:09:19.338Z,2.30
2018-05-07T13:11:46.829Z,2.43
2018-05-07T13:14:15.112Z,2.53
2018-05-07T13:16:42.602Z,2.50
2018-05-07T13:19:10.127Z,2.93
2018-05-07T13:21:37.639Z,2.77
2018-05-07T13:24:05.254Z,2.50
2018-05-07T13:26:32.801Z,2.70
2018-05-07T13:29:00.340Z,2.80
2018-05-07T13:31:28.607Z,2.67
2018-05-07T13:33:56.886Z,2.20
2018-05-07T13:36:25.159Z,2.50
2018-05-07T13:38:53.447Z,3.33
2018-05-07T13:41:20.960Z,2.30
2018-05-07T13:43:48.441Z,2.50
2018-05-07T13:46:16.727Z,2.50
2018-05-07T13:48:44.974Z,2.30
2018-05-07T13:51:12.678Z,2.27
2018-05-07T13:53:40.097Z,2.43
2018-05-07T13:56:07.675Z,2.50
2018-05-07T13:58:35.123Z,2.83
2018-05-07T14:01:03.406Z,2.20
2018-05-07T14:03:30.890Z,2.10
2018-05-07T14:05:58.385Z,2.20
2018-05-07T14:08:25.926Z,2.47
2018-05-07T14:10:53.408Z,2.53
2018-05-07T14:13:20.906Z,2.90
2018-05-07T14:15:48.437Z,2.30
2018-05-07T14:18:16.698Z,2.93
2018-05-07T14:20:44.995Z,2.30
2018-05-07T14:23:12.520Z,3.37
2018-05-07T14:25:40.056Z,2.83
2018-05-07T14:28:07.564Z,2.30
2018-05-07T14:30:35.058Z,2.60
2018-05-07T14:33:02.555Z,2.27
2018-05-07T14:35:30.899Z,2.77
2018-05-07T14:37:58.348Z,2.13
2018-05-07T14:40:26.642Z,2.80
2018-05-07T14:42:54.909Z,2.50
2018-05-07T14:45:22.428Z,2.40
2018-05-07T14:47:49.933Z,2.53
2018-05-07T14:50:17.484Z,2.53
2018-05-07T14:52:44.964Z,2.60
2018-05-07T14:55:13.210Z,3.20
2018-05-07T14:57:40.709Z,2.50
2018-05-07T15:00:09.001Z,2.60
2018-05-07T15:02:36.528Z,2.30
2018-05-07T15:05:04.784Z,2.50
2018-05-07T15:07:32.379Z,2.70
2018-05-07T15:09:59.869Z,2.20
2018-05-07T15:12:27.380Z,2.57
2018-05-07T15:14:55.643Z,2.30
2018-05-07T15:17:23.932Z,2.77
2018-05-07T15:19:52.183Z,2.30
2018-05-07T15:22:19.772Z,2.53
2018-05-07T15:24:47.276Z,3.07
2018-05-07T15:27:14.778Z,2.13
2018-05-07T15:29:43.145Z,2.50
2018-05-07T15:32:11.389Z,3.03
2018-05-07T15:34:38.884Z,2.83
2018-05-07T15:37:07.142Z,2.43
2018-05-07T15:39:35.451Z,3.03
2018-05-07T15:42:02.980Z,3.10
2018-05-07T15:44:31.260Z,2.03
2018-05-07T15:46:59.548Z,2.90
2018-05-07T15:49:27.152Z,2.53
2018-05-07T15:51:55.350Z,2.40
2018-05-07T15:54:22.838Z,3.03
2018-05-07T15:56:50.338Z,3.23
2018-05-07T15:59:17.822Z,2.20
2018-05-07T16:01:45.421Z,2.90
2018-05-07T16:04:12.933Z,2.80
2018-05-07T16:06:41.350Z,2.50
2018-05-07T16:09:08.847Z,2.83
2018-05-07T16:11:36.341Z,2.80
2018-05-07T16:14:04.598Z,2.80
2018-05-07T16:16:32.079Z,3.23
2018-05-07T16:18:59.626Z,2.33
2018-05-07T16:21:28.060Z,2.27
2018-05-07T16:23:56.205Z,3.50
2018-05-07T16:26:23.725Z,2.80
2018-05-07T16:28:52.017Z,2.80
2018-05-07T16:31:20.362Z,2.40
2018-05-07T16:33:48.547Z,2.73
2018-05-07T16:36:16.815Z,2.50
2018-05-07T16:38:44.321Z,2.70
2018-05-07T16:41:11.824Z,2.40
2018-05-07T16:43:39.330Z,2.70
2018-05-07T16:46:06.811Z,2.63
2018-05-07T16:48:34.327Z,3.27
2018-05-07T16:51:01.826Z,2.80
2018-05-07T16:53:29.361Z,3.23
2018-05-07T16:55:56.853Z,3.83
2018-05-07T16:58:24.344Z,3.27
2018-05-07T17:00:51.872Z,2.73
2018-05-07T17:03:19.362Z,3.13
2018-05-07T17:05:46.855Z,2.43
2018-05-07T17:08:14.378Z,3.60
2018-05-07T17:10:41.887Z,2.63
2018-05-07T17:13:09.385Z,2.77
2018-05-07T17:15:36.928Z,8.30
2018-05-07T17:18:05.378Z,2.53
2018-05-07T17:20:33.676Z,3.17
2018-05-07T17:23:01.959Z,3.10
2018-05-07T17:25:30.218Z,2.83
2018-05-07T17:27:57.717Z,4.20
2018-05-07T17:30:25.245Z,3.00
2018-05-07T17:32:53.501Z,2.63
2018-05-07T17:35:21.783Z,3.73
2018-05-07T17:37:50.047Z,3.03
2018-05-07T17:40:17.547Z,3.00
2018-05-07T17:42:45.055Z,2.80
2018-05-07T17:45:26.235Z,5.70
2018-05-07T17:48:05.707Z,3.23
2018-05-07T17:50:33.258Z,3.17
2018-05-07T17:53:00.760Z,3.60
2018-05-07T17:55:28.281Z,3.10
2018-05-07T17:57:55.790Z,3.27
2018-05-07T18:00:23.332Z,3.13
2018-05-07T18:02:50.832Z,3.13
2018-05-07T18:05:18.323Z,2.70
2018-05-07T18:07:45.831Z,2.73
2018-05-07T18:10:14.096Z,2.87
2018-05-07T18:12:41.597Z,2.47
2018-05-07T18:15:09.114Z,2.80
2018-05-07T18:17:37.401Z,2.43
2018-05-07T18:20:05.674Z,2.60
2018-05-07T18:22:33.955Z,2.87
2018-05-07T18:25:01.486Z,3.77
2018-05-07T18:27:28.999Z,3.00
2018-05-07T18:29:56.512Z,2.93
2018-05-07T18:32:24.830Z,3.30
2018-05-07T18:34:53.051Z,2.83
2018-05-07T18:37:20.562Z,3.17
2018-05-07T18:39:49.412Z,3.07
2018-05-07T18:42:16.929Z,3.60
2018-05-07T18:44:44.415Z,2.77
2018-05-07T18:47:12.707Z,3.33
2018-05-07T18:49:40.220Z,2.80
2018-05-07T18:52:07.817Z,3.40
2018-05-07T18:54:35.315Z,3.30
2018-05-07T18:57:02.794Z,2.80
2018-05-07T18:59:30.326Z,2.90
2018-05-07T19:01:57.834Z,3.07
2018-05-07T19:04:26.094Z,3.17
2018-05-07T19:06:53.586Z,3.03
2018-05-07T19:09:21.572Z,3.10
2018-05-07T19:11:49.071Z,3.53
2018-05-07T19:14:16.702Z,3.33
2018-05-07T19:16:44.207Z,3.80
2018-05-07T19:19:12.586Z,4.00
2018-05-07T19:21:40.881Z,3.23
2018-05-07T19:24:08.388Z,3.63
2018-05-07T19:26:35.888Z,3.37
2018-05-07T19:29:03.383Z,3.10
2018-05-07T19:31:30.982Z,3.70
2018-05-07T19:33:58.542Z,3.60
2018-05-07T19:36:26.940Z,4.50
2018-05-07T19:38:54.439Z,4.47
2018-05-07T19:41:22.060Z,3.70
2018-05-07T19:43:50.278Z,4.40
2018-05-07T19:46:17.773Z,4.37
2018-05-07T19:48:45.300Z,4.03
2018-05-07T19:51:13.618Z,3.90
2018-05-07T19:53:41.152Z,4.00
2018-05-07T19:56:08.702Z,3.57
2018-05-07T19:58:37.080Z,3.97
2018-05-07T20:01:05.353Z,4.00
2018-05-07T20:03:33.628Z,3.60
2018-05-07T20:06:01.900Z,3.83
2018-05-07T20:08:30.168Z,4.23
2018-05-07T20:10:58.413Z,4.00
2018-05-07T20:13:26.558Z,3.93
2018-05-07T20:15:54.076Z,4.00
2018-05-07T20:18:22.328Z,3.87
2018-05-07T20:20:49.846Z,3.70
2018-05-07T20:23:17.356Z,4.50
2018-05-07T20:25:45.636Z,4.20
2018-05-07T20:28:13.911Z,3.83
2018-05-07T20:30:42.200Z,3.80
2018-05-07T20:33:09.793Z,4.13
2018-05-07T20:35:37.217Z,4.17
2018-05-07T20:38:04.742Z,4.83
2018-05-07T20:40:32.250Z,3.57
2018-05-07T20:42:59.759Z,4.17
2018-05-07T20:45:28.049Z,4.10
2018-05-07T20:47:55.631Z,4.53
2018-05-07T20:50:23.099Z,4.30
2018-05-07T20:52:50.621Z,3.97
2018-05-07T20:55:18.948Z,3.50
2018-05-07T20:57:47.137Z,4.20
2018-05-07T21:00:14.632Z,4.37
2018-05-07T21:02:42.272Z,4.20
2018-05-07T21:05:11.433Z,4.83
2018-05-07T21:07:38.933Z,3.97
2018-05-07T21:10:07.194Z,4.20
2018-05-07T21:12:35.442Z,4.57
2018-05-07T21:15:02.934Z,4.30
2018-05-07T21:17:31.322Z,4.03
2018-05-07T21:19:58.876Z,5.37
2018-05-07T21:22:26.398Z,4.50
2018-05-07T21:24:53.887Z,3.73
2018-05-07T21:27:21.374Z,4.37
2018-05-07T21:29:48.883Z,5.57
2018-05-07T21:32:17.177Z,5.07
2018-05-07T21:34:44.751Z,5.10
2018-05-07T21:37:12.235Z,5.43
2018-05-07T21:39:39.718Z,4.80
2018-05-07T21:42:07.221Z,4.90
2018-05-07T21:44:34.745Z,5.40
2018-05-07T21:47:03.101Z,4.80
2018-05-07T21:49:30.796Z,5.77
2018-05-07T21:51:58.312Z,4.40
2018-05-07T21:54:25.809Z,5.30
2018-05-07T21:56:53.291Z,4.90
2018-05-07T21:59:20.840Z,4.90
2018-05-07T22:01:49.211Z,4.70
2018-05-07T22:04:16.780Z,5.20
2018-05-07T22:06:44.298Z,4.40
2018-05-07T22:09:11.782Z,5.93
2018-05-07T22:11:39.277Z,4.57
2018-05-07T22:14:06.866Z,4.40
2018-05-07T22:16:35.145Z,5.50
2018-05-07T22:19:02.698Z,4.60
2018-05-07T22:21:30.983Z,4.83
2018-05-07T22:23:58.493Z,4.57
2018-05-07T22:26:26.096Z,4.57
2018-05-07T22:28:53.602Z,5.00
2018-05-07T22:31:21.117Z,5.13
2018-05-07T22:33:48.613Z,5.13
2018-05-07T22:36:16.223Z,4.40
2018-05-07T22:38:43.721Z,5.07
2018-05-07T22:41:11.202Z,4.80
2018-05-07T22:43:38.711Z,4.87
2018-05-07T22:46:06.233Z,4.13
2018-05-07T22:48:33.800Z,4.50
2018-05-07T22:51:01.294Z,5.40
2018-05-07T22:53:28.811Z,4.30
2018-05-07T22:55:56.373Z,5.20
2018-05-07T22:58:23.916Z,5.17
2018-05-07T23:00:52.231Z,5.00
2018-05-07T23:03:19.698Z,4.77
2018-05-07T23:05:47.238Z,4.90
2018-05-07T23:08:14.717Z,4.80
2018-05-07T23:10:42.224Z,4.57
2018-05-07T23:13:10.467Z,5.17
2018-05-07T23:15:37.961Z,5.70
2018-05-07T23:18:05.437Z,4.80
2018-05-07T23:20:32.927Z,5.00
2018-05-07T23:23:00.532Z,5.90
2018-05-07T23:25:28.079Z,4.37
2018-05-07T23:27:56.360Z,4.90
2018-05-07T23:30:23.847Z,4.70
2018-05-07T23:32:51.337Z,5.57
2018-05-07T23:35:18.857Z,4.90
2018-05-07T23:37:46.359Z,5.60
2018-05-07T23:40:13.938Z,5.07
2018-05-07T23:42:42.204Z,4.67
2018-05-07T23:45:10.485Z,5.97
2018-05-07T23:47:38.855Z,4.70
2018-05-07T23:50:07.131Z,5.03
2018-05-07T23:52:35.418Z,4.63
2018-05-07T23:55:02.924Z,4.80
2018-05-07T23:57:30.415Z,4.60
2018-05-07T23:59:58.704Z,5.00
